createdAt,value
2022-07-25T00:01:54.473Z,2.00
2022-07-25T00:11:55.996Z,1.83
2022-07-25T00:21:58.628Z,2.22
2022-07-25T00:32:00.248Z,2.97
2022-07-25T00:42:01.798Z,2.10
2022-07-25T00:52:03.849Z,2.20
2022-07-25T01:02:05.495Z,2.30
2022-07-25T01:12:07.243Z,2.53
2022-07-25T01:22:13.306Z,2.67
2022-07-25T01:32:14.804Z,2.50
2022-07-25T01:42:16.330Z,3.15
2022-07-25T01:52:18.173Z,2.83
2022-07-25T02:02:19.731Z,3.17
2022-07-25T02:12:21.402Z,3.40
2022-07-25T02:22:22.955Z,3.85
2022-07-25T02:32:25.219Z,3.40
2022-07-25T02:42:26.778Z,3.28
2022-07-25T02:52:28.292Z,3.83
2022-07-25T03:02:29.817Z,3.45
2022-07-25T03:12:32.878Z,4.22
2022-07-25T03:22:35.109Z,3.60
2022-07-25T03:32:36.651Z,3.88
2022-07-25T03:42:38.208Z,4.95
2022-07-25T03:52:39.985Z,6.18
2022-07-25T04:02:41.675Z,8.80
2022-07-25T04:12:43.260Z,7.78
2022-07-25T04:22:46.961Z,8.90
2022-07-25T04:32:48.741Z,11.05
2022-07-25T04:42:50.244Z,12.00
2022-07-25T04:52:51.786Z,9.95
2022-07-25T05:02:53.487Z,11.48
2022-07-25T05:12:55.499Z,10.68
2022-07-25T05:22:57.105Z,7.70
2022-07-25T05:32:58.654Z,7.75
2022-07-25T05:43:03.224Z,8.43
2022-07-25T05:53:05.297Z,6.40
2022-07-25T06:03:06.874Z,7.20
2022-07-25T06:13:08.760Z,8.70
2022-07-25T06:23:11.918Z,8.98
2022-07-25T06:33:13.705Z,5.88
2022-07-25T06:43:15.264Z,6.40
2022-07-25T06:53:16.867Z,7.28
2022-07-25T07:03:18.416Z,8.25
2022-07-25T07:13:24.108Z,8.18
2022-07-25T07:23:26.184Z,6.32
2022-07-25T07:33:30.835Z,6.67
2022-07-25T07:43:32.404Z,5.90
2022-07-25T07:53:52.660Z,5.82
2022-07-25T08:03:54.209Z,6.40
2022-07-25T08:13:55.795Z,6.75
2022-07-25T08:23:57.328Z,6.32
2022-07-25T08:33:59.170Z,6.03
2022-07-25T08:44:02.875Z,5.97
2022-07-25T08:54:04.897Z,5.32
2022-07-25T09:04:10.141Z,5.70
2022-07-25T09:14:15.212Z,5.88
2022-07-25T09:24:18.765Z,5.30
2022-07-25T09:34:38.684Z,5.05
2022-07-25T09:44:40.220Z,6.30
2022-07-25T09:54:41.816Z,6.18
2022-07-25T10:04:51.908Z,4.95
2022-07-25T10:15:05.972Z,4.45
2022-07-25T10:25:11.343Z,4.28
2022-07-25T10:35:16.805Z,5.30
2022-07-25T10:45:18.493Z,4.05
2022-07-25T10:55:23.948Z,3.80
2022-07-25T11:05:25.564Z,4.15
2022-07-25T11:15:27.279Z,3.50
2022-07-25T11:25:28.829Z,2.80
2022-07-25T11:35:32.040Z,2.90
2022-07-25T11:45:34.269Z,3.38
2022-07-25T11:55:40.745Z,3.30
2022-07-25T12:05:42.815Z,3.03
2022-07-25T12:15:44.336Z,2.85
2022-07-25T12:25:46.901Z,3.50
2022-07-25T12:35:48.557Z,2.90
2022-07-25T12:45:50.175Z,3.53
2022-07-25T12:55:51.847Z,2.60
2022-07-25T13:05:54.257Z,4.70
2022-07-25T13:15:55.818Z,2.70
2022-07-25T13:25:57.514Z,2.75
2022-07-25T13:35:59.219Z,2.70
2022-07-25T13:46:01.267Z,4.03
2022-07-25T13:56:03.100Z,5.40
2022-07-25T14:06:05.275Z,5.47
2022-07-25T14:16:07.178Z,8.32
2022-07-25T14:26:08.726Z,6.63
2022-07-25T14:36:10.651Z,7.80
2022-07-25T14:46:12.193Z,7.82
2022-07-25T14:56:13.694Z,8.70
2022-07-25T15:06:17.277Z,9.45
2022-07-25T15:16:19.050Z,7.47
2022-07-25T15:26:20.690Z,6.57
2022-07-25T15:36:25.905Z,6.38
2022-07-25T15:46:30.916Z,7.35
2022-07-25T15:56:32.450Z,5.25
2022-07-25T16:06:34.297Z,7.72
2022-07-25T16:16:36.564Z,5.90
2022-07-25T16:26:38.540Z,9.70
2022-07-25T16:36:40.123Z,8.55
2022-07-25T16:46:42.079Z,8.25
2022-07-25T16:56:43.791Z,9.05
2022-07-25T17:06:45.369Z,6.55
2022-07-25T17:16:47.047Z,4.53
2022-07-25T17:26:48.679Z,3.38
2022-07-25T17:36:50.351Z,5.05
2022-07-25T17:46:55.391Z,4.53
2022-07-25T17:56:57.642Z,5.15
2022-07-25T18:06:59.195Z,5.60
2022-07-25T18:17:00.795Z,2.92
2022-07-25T18:27:02.410Z,5.03
2022-07-25T18:37:05.306Z,2.85
2022-07-25T18:47:07.212Z,4.55
2022-07-25T18:57:08.813Z,3.30
2022-07-25T19:07:10.463Z,2.60
2022-07-25T19:17:12.040Z,4.82
2022-07-25T19:27:13.697Z,1.85
2022-07-25T19:37:15.297Z,2.53
2022-07-25T19:47:16.868Z,3.80
2022-07-25T19:57:19.049Z,3.47
2022-07-25T20:07:21.125Z,2.25
2022-07-25T20:17:23.317Z,2.58
2022-07-25T20:27:24.803Z,3.03
2022-07-25T20:37:26.386Z,3.30
2022-07-25T20:47:27.983Z,1.95
2022-07-25T20:57:29.569Z,2.13
2022-07-25T21:07:31.065Z,3.55
2022-07-25T21:17:32.975Z,1.83
2022-07-25T21:27:35.103Z,3.45
2022-07-25T21:37:36.730Z,3.60
2022-07-25T21:47:38.337Z,3.20
2022-07-25T21:57:39.884Z,2.55
2022-07-25T22:07:41.972Z,2.58
2022-07-25T22:17:48.664Z,2.53
2022-07-25T22:27:51.310Z,2.78
2022-07-25T22:37:52.819Z,3.20
2022-07-25T22:47:54.454Z,1.95
2022-07-25T22:57:56.097Z,2.90
2022-07-25T23:07:57.631Z,2.50
2022-07-25T23:17:59.183Z,3.10
2022-07-25T23:28:00.742Z,1.83
2022-07-25T23:38:02.525Z,2.33
2022-07-25T23:48:05.248Z,2.53
2022-07-25T23:58:06.800Z,2.63
